sensor_id;sensor_type;location;lat;lon;timestamp;P1;durP1;ratioP1;P2;durP2;ratioP2
5805;SDS011;2929;50.810;8.342;2024-02-15T00:02:00;6.77;;;4.37;;
5805;SDS011;2929;50.810;8.342;2024-02-15T00:04:27;10.10;;;4.20;;
5805;SDS011;2929;50.810;8.342;2024-02-15T00:06:54;10.70;;;4.20;;
5805;SDS011;2929;50.810;8.342;2024-02-15T00:09:21;5.80;;;4.10;;
5805;SDS011;2929;50.810;8.342;2024-02-15T00:11:48;10.93;;;4.40;;
5805;SDS011;2929;50.810;8.342;2024-02-15T00:14:15;7.13;;;4.40;;
5805;SDS011;2929;50.810;8.342;2024-02-15T00:16:43;7.63;;;3.87;;
5805;SDS011;2929;50.810;8.342;2024-02-15T00:19:12;5.37;;;3.83;;
5805;SDS011;2929;50.810;8.342;2024-02-15T00:21:42;8.77;;;3.53;;
5805;SDS011;2929;50.810;8.342;2024-02-15T00:24:09;6.33;;;3.50;;
5805;SDS011;2929;50.810;8.342;2024-02-15T00:26:36;8.33;;;3.40;;
5805;SDS011;2929;50.810;8.342;2024-02-15T00:29:03;4.57;;;2.83;;
5805;SDS011;2929;50.810;8.342;2024-02-15T00:31:30;5.40;;;4.13;;
5805;SDS011;2929;50.810;8.342;2024-02-15T00:33:59;7.03;;;3.47;;
5805;SDS011;2929;50.810;8.342;2024-02-15T00:36:27;10.27;;;3.97;;
5805;SDS011;2929;50.810;8.342;2024-02-15T00:38:54;5.70;;;3.57;;
5805;SDS011;2929;50.810;8.342;2024-02-15T00:41:21;6.33;;;3.80;;
5805;SDS011;2929;50.810;8.342;2024-02-15T00:43:48;6.10;;;3.90;;
5805;SDS011;2929;50.810;8.342;2024-02-15T00:46:15;7.87;;;3.73;;
5805;SDS011;2929;50.810;8.342;2024-02-15T00:48:42;6.50;;;3.90;;
5805;SDS011;2929;50.810;8.342;2024-02-15T00:51:10;4.90;;;3.50;;
5805;SDS011;2929;50.810;8.342;2024-02-15T00:53:37;5.30;;;3.23;;
5805;SDS011;2929;50.810;8.342;2024-02-15T00:56:05;6.70;;;3.53;;
5805;SDS011;2929;50.810;8.342;2024-02-15T00:58:32;8.90;;;3.70;;
5805;SDS011;2929;50.810;8.342;2024-02-15T01:00:59;6.17;;;2.97;;
5805;SDS011;2929;50.810;8.342;2024-02-15T01:03:26;7.10;;;2.93;;
5805;SDS011;2929;50.810;8.342;2024-02-15T01:05:53;6.37;;;3.30;;
5805;SDS011;2929;50.810;8.342;2024-02-15T01:08:21;5.70;;;2.93;;
5805;SDS011;2929;50.810;8.342;2024-02-15T01:10:48;4.53;;;2.77;;
5805;SDS011;2929;50.810;8.342;2024-02-15T01:13:15;6.13;;;2.87;;
5805;SDS011;2929;50.810;8.342;2024-02-15T01:15:42;4.80;;;3.10;;
5805;SDS011;2929;50.810;8.342;2024-02-15T01:18:09;8.20;;;3.37;;
5805;SDS011;2929;50.810;8.342;2024-02-15T01:20:36;7.20;;;3.87;;
5805;SDS011;2929;50.810;8.342;2024-02-15T01:23:03;5.40;;;3.57;;
5805;SDS011;2929;50.810;8.342;2024-02-15T01:25:34;8.07;;;3.60;;
5805;SDS011;2929;50.810;8.342;2024-02-15T01:28:01;7.20;;;3.33;;
5805;SDS011;2929;50.810;8.342;2024-02-15T01:30:28;6.90;;;3.10;;
5805;SDS011;2929;50.810;8.342;2024-02-15T01:32:55;17.50;;;3.03;;
5805;SDS011;2929;50.810;8.342;2024-02-15T01:35:22;12.20;;;3.77;;
5805;SDS011;2929;50.810;8.342;2024-02-15T01:37:49;4.20;;;3.03;;
5805;SDS011;2929;50.810;8.342;2024-02-15T01:40:16;9.17;;;4.33;;
5805;SDS011;2929;50.810;8.342;2024-02-15T01:42:45;10.50;;;4.07;;
5805;SDS011;2929;50.810;8.342;2024-02-15T01:45:15;10.10;;;3.40;;
5805;SDS011;2929;50.810;8.342;2024-02-15T01:47:42;8.50;;;3.30;;
5805;SDS011;2929;50.810;8.342;2024-02-15T01:50:10;6.83;;;3.40;;
5805;SDS011;2929;50.810;8.342;2024-02-15T01:52:37;8.83;;;4.00;;
5805;SDS011;2929;50.810;8.342;2024-02-15T01:55:07;8.80;;;4.57;;
5805;SDS011;2929;50.810;8.342;2024-02-15T01:57:35;9.87;;;4.87;;
5805;SDS011;2929;50.810;8.342;2024-02-15T02:00:05;8.43;;;4.00;;
5805;SDS011;2929;50.810;8.342;2024-02-15T02:02:35;13.33;;;4.93;;
5805;SDS011;2929;50.810;8.342;2024-02-15T02:05:06;16.20;;;4.80;;
5805;SDS011;2929;50.810;8.342;2024-02-15T02:07:33;6.13;;;4.27;;
5805;SDS011;2929;50.810;8.342;2024-02-15T02:10:00;11.57;;;4.27;;
5805;SDS011;2929;50.810;8.342;2024-02-15T02:12:28;9.93;;;4.33;;
5805;SDS011;2929;50.810;8.342;2024-02-15T02:14:55;14.10;;;4.10;;
5805;SDS011;2929;50.810;8.342;2024-02-15T02:17:23;13.97;;;4.43;;
5805;SDS011;2929;50.810;8.342;2024-02-15T02:19:50;6.30;;;4.10;;
5805;SDS011;2929;50.810;8.342;2024-02-15T02:22:18;6.47;;;4.00;;
5805;SDS011;2929;50.810;8.342;2024-02-15T02:27:38;11.10;;;3.70;;
5805;SDS011;2929;50.810;8.342;2024-02-15T02:30:13;13.57;;;4.60;;
5805;SDS011;2929;50.810;8.342;2024-02-15T02:32:42;7.43;;;4.07;;
5805;SDS011;2929;50.810;8.342;2024-02-15T02:35:09;4.77;;;3.80;;
5805;SDS011;2929;50.810;8.342;2024-02-15T02:37:37;6.37;;;4.07;;
5805;SDS011;2929;50.810;8.342;2024-02-15T02:40:05;6.90;;;3.77;;
5805;SDS011;2929;50.810;8.342;2024-02-15T02:42:35;12.13;;;4.10;;
5805;SDS011;2929;50.810;8.342;2024-02-15T02:45:03;15.20;;;4.60;;
5805;SDS011;2929;50.810;8.342;2024-02-15T02:47:31;5.37;;;3.30;;
5805;SDS011;2929;50.810;8.342;2024-02-15T02:49:58;12.37;;;3.83;;
5805;SDS011;2929;50.810;8.342;2024-02-15T02:52:25;15.27;;;3.57;;
5805;SDS011;2929;50.810;8.342;2024-02-15T02:54:52;9.90;;;3.20;;
5805;SDS011;2929;50.810;8.342;2024-02-15T02:57:19;9.47;;;3.70;;
5805;SDS011;2929;50.810;8.342;2024-02-15T02:59:48;5.60;;;3.30;;
5805;SDS011;2929;50.810;8.342;2024-02-15T03:02:14;6.57;;;3.77;;
5805;SDS011;2929;50.810;8.342;2024-02-15T03:04:41;7.50;;;3.50;;
5805;SDS011;2929;50.810;8.342;2024-02-15T03:07:09;7.83;;;3.90;;
5805;SDS011;2929;50.810;8.342;2024-02-15T03:09:35;6.87;;;3.33;;
5805;SDS011;2929;50.810;8.342;2024-02-15T03:12:02;6.43;;;3.63;;
5805;SDS011;2929;50.810;8.342;2024-02-15T03:14:30;8.73;;;3.70;;
5805;SDS011;2929;50.810;8.342;2024-02-15T03:16:59;8.90;;;3.73;;
5805;SDS011;2929;50.810;8.342;2024-02-15T03:19:28;5.13;;;2.77;;
5805;SDS011;2929;50.810;8.342;2024-02-15T03:21:56;5.10;;;2.97;;
5805;SDS011;2929;50.810;8.342;2024-02-15T03:24:22;8.87;;;3.37;;
5805;SDS011;2929;50.810;8.342;2024-02-15T03:26:50;5.27;;;3.27;;
5805;SDS011;2929;50.810;8.342;2024-02-15T03:29:17;7.17;;;3.37;;
5805;SDS011;2929;50.810;8.342;2024-02-15T03:31:45;10.90;;;4.77;;
5805;SDS011;2929;50.810;8.342;2024-02-15T03:34:15;15.30;;;3.60;;
5805;SDS011;2929;50.810;8.342;2024-02-15T03:36:42;9.20;;;4.20;;
5805;SDS011;2929;50.810;8.342;2024-02-15T03:39:09;7.90;;;3.23;;
5805;SDS011;2929;50.810;8.342;2024-02-15T03:41:36;5.83;;;3.67;;
5805;SDS011;2929;50.810;8.342;2024-02-15T03:44:03;12.50;;;4.37;;
5805;SDS011;2929;50.810;8.342;2024-02-15T03:46:30;10.10;;;3.70;;
5805;SDS011;2929;50.810;8.342;2024-02-15T03:48:57;8.50;;;3.87;;
5805;SDS011;2929;50.810;8.342;2024-02-15T03:51:25;10.80;;;4.17;;
5805;SDS011;2929;50.810;8.342;2024-02-15T03:53:52;9.47;;;3.97;;
5805;SDS011;2929;50.810;8.342;2024-02-15T03:56:19;5.30;;;4.00;;
5805;SDS011;2929;50.810;8.342;2024-02-15T03:58:47;10.00;;;3.60;;
5805;SDS011;2929;50.810;8.342;2024-02-15T04:01:17;5.10;;;3.33;;
5805;SDS011;2929;50.810;8.342;2024-02-15T04:03:44;9.80;;;3.70;;
5805;SDS011;2929;50.810;8.342;2024-02-15T04:06:12;7.70;;;4.00;;
5805;SDS011;2929;50.810;8.342;2024-02-15T04:08:41;8.60;;;4.23;;
5805;SDS011;2929;50.810;8.342;2024-02-15T04:11:08;14.17;;;4.80;;
5805;SDS011;2929;50.810;8.342;2024-02-15T04:13:35;12.00;;;4.10;;
5805;SDS011;2929;50.810;8.342;2024-02-15T04:16:03;8.90;;;4.10;;
5805;SDS011;2929;50.810;8.342;2024-02-15T04:18:30;6.60;;;4.07;;
5805;SDS011;2929;50.810;8.342;2024-02-15T04:20:57;7.90;;;4.93;;
5805;SDS011;2929;50.810;8.342;2024-02-15T04:23:24;11.57;;;4.63;;
5805;SDS011;2929;50.810;8.342;2024-02-15T04:25:52;11.07;;;4.90;;
5805;SDS011;2929;50.810;8.342;2024-02-15T04:28:21;5.77;;;4.10;;
5805;SDS011;2929;50.810;8.342;2024-02-15T04:30:48;6.07;;;4.07;;
5805;SDS011;2929;50.810;8.342;2024-02-15T04:33:15;13.07;;;4.50;;
5805;SDS011;2929;50.810;8.342;2024-02-15T04:35:42;10.20;;;4.60;;
5805;SDS011;2929;50.810;8.342;2024-02-15T04:38:10;15.43;;;4.77;;
5805;SDS011;2929;50.810;8.342;2024-02-15T04:40:37;6.07;;;4.27;;
5805;SDS011;2929;50.810;8.342;2024-02-15T04:43:06;9.93;;;5.10;;
5805;SDS011;2929;50.810;8.342;2024-02-15T04:45:34;9.60;;;4.40;;
5805;SDS011;2929;50.810;8.342;2024-02-15T04:48:01;8.47;;;4.43;;
5805;SDS011;2929;50.810;8.342;2024-02-15T04:50:28;7.63;;;5.03;;
5805;SDS011;2929;50.810;8.342;2024-02-15T04:52:55;8.70;;;5.10;;
5805;SDS011;2929;50.810;8.342;2024-02-15T04:55:22;8.70;;;5.03;;
5805;SDS011;2929;50.810;8.342;2024-02-15T04:57:51;9.67;;;4.90;;
5805;SDS011;2929;50.810;8.342;2024-02-15T05:00:23;10.43;;;5.33;;
5805;SDS011;2929;50.810;8.342;2024-02-15T05:02:51;8.40;;;4.97;;
5805;SDS011;2929;50.810;8.342;2024-02-15T05:05:18;11.00;;;5.73;;
5805;SDS011;2929;50.810;8.342;2024-02-15T05:07:47;10.80;;;5.60;;
5805;SDS011;2929;50.810;8.342;2024-02-15T05:10:15;17.63;;;5.70;;
5805;SDS011;2929;50.810;8.342;2024-02-15T05:12:44;7.80;;;5.60;;
5805;SDS011;2929;50.810;8.342;2024-02-15T05:15:19;8.50;;;5.60;;
5805;SDS011;2929;50.810;8.342;2024-02-15T05:17:51;7.77;;;5.53;;
5805;SDS011;2929;50.810;8.342;2024-02-15T05:20:19;12.10;;;6.07;;
5805;SDS011;2929;50.810;8.342;2024-02-15T05:22:46;11.17;;;5.87;;
5805;SDS011;2929;50.810;8.342;2024-02-15T05:25:14;11.07;;;6.67;;
5805;SDS011;2929;50.810;8.342;2024-02-15T05:27:41;13.17;;;6.10;;
5805;SDS011;2929;50.810;8.342;2024-02-15T05:30:10;11.50;;;5.37;;
5805;SDS011;2929;50.810;8.342;2024-02-15T05:32:39;11.20;;;6.50;;
5805;SDS011;2929;50.810;8.342;2024-02-15T05:35:10;10.00;;;6.80;;
5805;SDS011;2929;50.810;8.342;2024-02-15T05:37:38;15.13;;;5.90;;
5805;SDS011;2929;50.810;8.342;2024-02-15T05:40:05;23.93;;;7.43;;
5805;SDS011;2929;50.810;8.342;2024-02-15T05:42:40;19.53;;;8.13;;
5805;SDS011;2929;50.810;8.342;2024-02-15T05:45:29;15.77;;;7.00;;
5805;SDS011;2929;50.810;8.342;2024-02-15T05:47:57;13.73;;;7.00;;
5805;SDS011;2929;50.810;8.342;2024-02-15T05:50:26;14.97;;;6.77;;
5805;SDS011;2929;50.810;8.342;2024-02-15T05:52:55;11.87;;;7.07;;
5805;SDS011;2929;50.810;8.342;2024-02-15T05:55:23;14.23;;;7.27;;
5805;SDS011;2929;50.810;8.342;2024-02-15T05:57:51;11.10;;;7.30;;
5805;SDS011;2929;50.810;8.342;2024-02-15T06:00:19;15.70;;;6.53;;
5805;SDS011;2929;50.810;8.342;2024-02-15T06:02:47;12.33;;;7.50;;
5805;SDS011;2929;50.810;8.342;2024-02-15T06:05:14;13.47;;;6.57;;
5805;SDS011;2929;50.810;8.342;2024-02-15T06:07:43;14.93;;;6.60;;
5805;SDS011;2929;50.810;8.342;2024-02-15T06:10:11;14.60;;;7.70;;
5805;SDS011;2929;50.810;8.342;2024-02-15T06:12:39;17.43;;;7.83;;
5805;SDS011;2929;50.810;8.342;2024-02-15T06:15:07;14.17;;;8.27;;
5805;SDS011;2929;50.810;8.342;2024-02-15T06:17:40;14.13;;;7.67;;
5805;SDS011;2929;50.810;8.342;2024-02-15T06:20:10;22.43;;;9.70;;
5805;SDS011;2929;50.810;8.342;2024-02-15T06:22:39;18.63;;;8.00;;
5805;SDS011;2929;50.810;8.342;2024-02-15T06:25:09;15.57;;;7.27;;
5805;SDS011;2929;50.810;8.342;2024-02-15T06:27:36;20.00;;;9.90;;
5805;SDS011;2929;50.810;8.342;2024-02-15T06:30:06;14.30;;;7.63;;
5805;SDS011;2929;50.810;8.342;2024-02-15T06:32:51;15.90;;;8.37;;
5805;SDS011;2929;50.810;8.342;2024-02-15T06:35:36;16.63;;;8.90;;
5805;SDS011;2929;50.810;8.342;2024-02-15T06:38:21;16.70;;;7.73;;
5805;SDS011;2929;50.810;8.342;2024-02-15T06:41:08;15.47;;;7.60;;
5805;SDS011;2929;50.810;8.342;2024-02-15T06:43:35;13.67;;;7.27;;
5805;SDS011;2929;50.810;8.342;2024-02-15T06:46:02;13.30;;;7.40;;
5805;SDS011;2929;50.810;8.342;2024-02-15T06:48:32;17.00;;;8.30;;
5805;SDS011;2929;50.810;8.342;2024-02-15T06:50:59;18.20;;;7.23;;
5805;SDS011;2929;50.810;8.342;2024-02-15T06:53:26;11.77;;;7.60;;
5805;SDS011;2929;50.810;8.342;2024-02-15T06:55:53;15.00;;;7.83;;
5805;SDS011;2929;50.810;8.342;2024-02-15T06:58:21;14.13;;;7.40;;
5805;SDS011;2929;50.810;8.342;2024-02-15T07:00:48;13.93;;;6.57;;
5805;SDS011;2929;50.810;8.342;2024-02-15T07:03:16;14.17;;;7.03;;
5805;SDS011;2929;50.810;8.342;2024-02-15T07:05:43;24.40;;;9.20;;
5805;SDS011;2929;50.810;8.342;2024-02-15T07:08:10;16.87;;;7.70;;
5805;SDS011;2929;50.810;8.342;2024-02-15T07:10:38;16.83;;;7.50;;
5805;SDS011;2929;50.810;8.342;2024-02-15T07:13:05;12.40;;;6.77;;
5805;SDS011;2929;50.810;8.342;2024-02-15T07:15:34;11.20;;;6.27;;
5805;SDS011;2929;50.810;8.342;2024-02-15T07:18:03;9.37;;;6.13;;
5805;SDS011;2929;50.810;8.342;2024-02-15T07:20:32;19.80;;;7.33;;
5805;SDS011;2929;50.810;8.342;2024-02-15T07:22:59;7.50;;;5.73;;
5805;SDS011;2929;50.810;8.342;2024-02-15T07:25:26;14.30;;;6.40;;
5805;SDS011;2929;50.810;8.342;2024-02-15T07:27:53;16.07;;;6.67;;
5805;SDS011;2929;50.810;8.342;2024-02-15T07:30:20;9.93;;;6.13;;
5805;SDS011;2929;50.810;8.342;2024-02-15T07:32:49;15.57;;;7.10;;
5805;SDS011;2929;50.810;8.342;2024-02-15T07:35:16;10.50;;;5.80;;
5805;SDS011;2929;50.810;8.342;2024-02-15T07:37:50;17.20;;;6.80;;
5805;SDS011;2929;50.810;8.342;2024-02-15T07:40:21;15.80;;;7.20;;
5805;SDS011;2929;50.810;8.342;2024-02-15T07:42:52;8.80;;;6.50;;
5805;SDS011;2929;50.810;8.342;2024-02-15T07:45:21;13.13;;;5.63;;
5805;SDS011;2929;50.810;8.342;2024-02-15T07:47:50;10.00;;;6.70;;
5805;SDS011;2929;50.810;8.342;2024-02-15T07:50:17;19.27;;;6.87;;
5805;SDS011;2929;50.810;8.342;2024-02-15T07:52:48;9.97;;;6.20;;
5805;SDS011;2929;50.810;8.342;2024-02-15T07:55:16;17.90;;;6.50;;
5805;SDS011;2929;50.810;8.342;2024-02-15T07:57:43;10.60;;;6.40;;
5805;SDS011;2929;50.810;8.342;2024-02-15T08:00:12;15.97;;;6.73;;
5805;SDS011;2929;50.810;8.342;2024-02-15T08:02:41;11.83;;;5.87;;
5805;SDS011;2929;50.810;8.342;2024-02-15T08:05:10;14.97;;;6.00;;
5805;SDS011;2929;50.810;8.342;2024-02-15T08:07:40;9.50;;;5.93;;
5805;SDS011;2929;50.810;8.342;2024-02-15T08:10:09;8.67;;;5.93;;
5805;SDS011;2929;50.810;8.342;2024-02-15T08:12:38;10.83;;;5.53;;
5805;SDS011;2929;50.810;8.342;2024-02-15T08:15:06;14.13;;;5.83;;
5805;SDS011;2929;50.810;8.342;2024-02-15T08:17:37;19.50;;;5.30;;
5805;SDS011;2929;50.810;8.342;2024-02-15T08:20:06;11.97;;;5.97;;
5805;SDS011;2929;50.810;8.342;2024-02-15T08:22:36;15.50;;;5.13;;
5805;SDS011;2929;50.810;8.342;2024-02-15T08:25:05;14.83;;;4.73;;
5805;SDS011;2929;50.810;8.342;2024-02-15T08:27:37;11.20;;;5.33;;
5805;SDS011;2929;50.810;8.342;2024-02-15T08:30:08;14.83;;;6.00;;
5805;SDS011;2929;50.810;8.342;2024-02-15T08:32:37;11.23;;;6.33;;
5805;SDS011;2929;50.810;8.342;2024-02-15T08:35:05;9.10;;;5.20;;
5805;SDS011;2929;50.810;8.342;2024-02-15T08:37:33;10.60;;;5.70;;
5805;SDS011;2929;50.810;8.342;2024-02-15T08:40:03;14.63;;;5.37;;
5805;SDS011;2929;50.810;8.342;2024-02-15T08:42:35;16.70;;;4.57;;
5805;SDS011;2929;50.810;8.342;2024-02-15T08:45:03;9.67;;;4.27;;
5805;SDS011;2929;50.810;8.342;2024-02-15T08:47:34;8.87;;;3.90;;
5805;SDS011;2929;50.810;8.342;2024-02-15T08:50:03;8.23;;;3.60;;
5805;SDS011;2929;50.810;8.342;2024-02-15T08:52:31;10.23;;;4.87;;
5805;SDS011;2929;50.810;8.342;2024-02-15T08:54:59;14.23;;;3.80;;
5805;SDS011;2929;50.810;8.342;2024-02-15T08:57:26;10.63;;;3.47;;
5805;SDS011;2929;50.810;8.342;2024-02-15T08:59:53;9.50;;;3.20;;
5805;SDS011;2929;50.810;8.342;2024-02-15T09:02:20;13.30;;;3.43;;
5805;SDS011;2929;50.810;8.342;2024-02-15T09:04:47;5.30;;;3.10;;
5805;SDS011;2929;50.810;8.342;2024-02-15T09:07:14;7.07;;;3.17;;
5805;SDS011;2929;50.810;8.342;2024-02-15T09:09:41;9.10;;;3.53;;
5805;SDS011;2929;50.810;8.342;2024-02-15T09:12:09;12.90;;;2.70;;
5805;SDS011;2929;50.810;8.342;2024-02-15T09:14:37;9.57;;;2.73;;
5805;SDS011;2929;50.810;8.342;2024-02-15T09:17:04;8.30;;;3.57;;
5805;SDS011;2929;50.810;8.342;2024-02-15T09:19:33;7.67;;;2.90;;
5805;SDS011;2929;50.810;8.342;2024-02-15T09:22:00;9.20;;;2.90;;
5805;SDS011;2929;50.810;8.342;2024-02-15T09:24:29;5.57;;;2.40;;
5805;SDS011;2929;50.810;8.342;2024-02-15T09:26:58;13.27;;;3.13;;
5805;SDS011;2929;50.810;8.342;2024-02-15T09:29:27;7.23;;;2.80;;
5805;SDS011;2929;50.810;8.342;2024-02-15T09:31:55;4.00;;;2.70;;
5805;SDS011;2929;50.810;8.342;2024-02-15T09:34:22;8.30;;;2.70;;
5805;SDS011;2929;50.810;8.342;2024-02-15T09:36:50;4.83;;;2.63;;
5805;SDS011;2929;50.810;8.342;2024-02-15T09:39:17;7.27;;;3.10;;
5805;SDS011;2929;50.810;8.342;2024-02-15T09:41:44;9.17;;;2.50;;
5805;SDS011;2929;50.810;8.342;2024-02-15T09:44:11;10.67;;;2.77;;
5805;SDS011;2929;50.810;8.342;2024-02-15T09:46:42;10.47;;;3.43;;
5805;SDS011;2929;50.810;8.342;2024-02-15T09:49:11;8.30;;;2.60;;
5805;SDS011;2929;50.810;8.342;2024-02-15T09:51:39;8.60;;;2.90;;
5805;SDS011;2929;50.810;8.342;2024-02-15T09:54:07;10.43;;;2.50;;
5805;SDS011;2929;50.810;8.342;2024-02-15T09:56:35;10.20;;;2.20;;
5805;SDS011;2929;50.810;8.342;2024-02-15T09:59:03;14.00;;;2.63;;
5805;SDS011;2929;50.810;8.342;2024-02-15T10:01:31;8.30;;;2.73;;
5805;SDS011;2929;50.810;8.342;2024-02-15T10:03:59;7.50;;;3.00;;
5805;SDS011;2929;50.810;8.342;2024-02-15T10:06:31;10.83;;;2.70;;
5805;SDS011;2929;50.810;8.342;2024-02-15T10:11:53;6.33;;;2.13;;
5805;SDS011;2929;50.810;8.342;2024-02-15T10:14:21;11.07;;;2.83;;
5805;SDS011;2929;50.810;8.342;2024-02-15T10:16:48;11.90;;;2.50;;
5805;SDS011;2929;50.810;8.342;2024-02-15T10:19:17;8.60;;;2.97;;
5805;SDS011;2929;50.810;8.342;2024-02-15T10:21:45;5.10;;;2.70;;
5805;SDS011;2929;50.810;8.342;2024-02-15T10:24:12;8.27;;;2.23;;
5805;SDS011;2929;50.810;8.342;2024-02-15T10:26:40;7.17;;;2.70;;
5805;SDS011;2929;50.810;8.342;2024-02-15T10:29:08;11.40;;;2.87;;
5805;SDS011;2929;50.810;8.342;2024-02-15T10:31:36;5.73;;;2.50;;
5805;SDS011;2929;50.810;8.342;2024-02-15T10:34:05;7.17;;;2.30;;
5805;SDS011;2929;50.810;8.342;2024-02-15T10:36:34;3.43;;;1.80;;
5805;SDS011;2929;50.810;8.342;2024-02-15T10:39:10;5.63;;;2.20;;
5805;SDS011;2929;50.810;8.342;2024-02-15T10:41:43;9.77;;;2.40;;
5805;SDS011;2929;50.810;8.342;2024-02-15T10:44:12;5.83;;;1.83;;
5805;SDS011;2929;50.810;8.342;2024-02-15T10:46:44;4.43;;;1.80;;
5805;SDS011;2929;50.810;8.342;2024-02-15T10:49:12;3.40;;;1.97;;
5805;SDS011;2929;50.810;8.342;2024-02-15T10:51:43;6.33;;;2.70;;
5805;SDS011;2929;50.810;8.342;2024-02-15T10:54:11;5.07;;;1.70;;
5805;SDS011;2929;50.810;8.342;2024-02-15T10:56:42;7.70;;;2.10;;
5805;SDS011;2929;50.810;8.342;2024-02-15T10:59:16;2.80;;;1.93;;
5805;SDS011;2929;50.810;8.342;2024-02-15T11:01:45;7.23;;;2.10;;
5805;SDS011;2929;50.810;8.342;2024-02-15T11:04:14;6.57;;;1.80;;
5805;SDS011;2929;50.810;8.342;2024-02-15T11:06:43;5.50;;;1.77;;
5805;SDS011;2929;50.810;8.342;2024-02-15T11:09:10;4.93;;;2.00;;
5805;SDS011;2929;50.810;8.342;2024-02-15T11:11:39;5.33;;;1.93;;
5805;SDS011;2929;50.810;8.342;2024-02-15T11:14:23;3.00;;;1.60;;
5805;SDS011;2929;50.810;8.342;2024-02-15T11:16:50;1.93;;;1.50;;
5805;SDS011;2929;50.810;8.342;2024-02-15T11:22:14;4.03;;;1.80;;
5805;SDS011;2929;50.810;8.342;2024-02-15T11:24:45;3.67;;;1.43;;
5805;SDS011;2929;50.810;8.342;2024-02-15T11:27:14;5.03;;;1.50;;
5805;SDS011;2929;50.810;8.342;2024-02-15T11:29:52;5.23;;;1.70;;
5805;SDS011;2929;50.810;8.342;2024-02-15T11:32:33;6.90;;;1.97;;
5805;SDS011;2929;50.810;8.342;2024-02-15T11:35:02;2.63;;;1.60;;
5805;SDS011;2929;50.810;8.342;2024-02-15T11:37:56;7.93;;;1.70;;
5805;SDS011;2929;50.810;8.342;2024-02-15T11:43:48;8.30;;;2.10;;
5805;SDS011;2929;50.810;8.342;2024-02-15T11:46:20;3.07;;;1.30;;
5805;SDS011;2929;50.810;8.342;2024-02-15T11:48:47;3.47;;;1.67;;
5805;SDS011;2929;50.810;8.342;2024-02-15T11:51:24;3.70;;;1.37;;
5805;SDS011;2929;50.810;8.342;2024-02-15T11:54:01;3.37;;;1.87;;
5805;SDS011;2929;50.810;8.342;2024-02-15T11:56:33;5.20;;;1.60;;
5805;SDS011;2929;50.810;8.342;2024-02-15T11:59:19;3.53;;;1.83;;
5805;SDS011;2929;50.810;8.342;2024-02-15T12:01:57;5.43;;;2.10;;
5805;SDS011;2929;50.810;8.342;2024-02-15T12:04:41;6.93;;;2.10;;
5805;SDS011;2929;50.810;8.342;2024-02-15T12:07:26;2.80;;;1.57;;
5805;SDS011;2929;50.810;8.342;2024-02-15T12:10:16;2.30;;;1.40;;
5805;SDS011;2929;50.810;8.342;2024-02-15T12:13:01;3.07;;;1.97;;
5805;SDS011;2929;50.810;8.342;2024-02-15T12:15:58;4.07;;;1.87;;
5805;SDS011;2929;50.810;8.342;2024-02-15T12:18:44;4.60;;;1.80;;
5805;SDS011;2929;50.810;8.342;2024-02-15T12:21:18;7.27;;;2.50;;
5805;SDS011;2929;50.810;8.342;2024-02-15T12:23:48;3.03;;;2.00;;
5805;SDS011;2929;50.810;8.342;2024-02-15T12:26:19;5.87;;;1.83;;
5805;SDS011;2929;50.810;8.342;2024-02-15T12:28:51;5.27;;;1.83;;
5805;SDS011;2929;50.810;8.342;2024-02-15T12:31:20;8.80;;;1.73;;
5805;SDS011;2929;50.810;8.342;2024-02-15T12:33:58;11.07;;;2.10;;
5805;SDS011;2929;50.810;8.342;2024-02-15T12:36:27;5.77;;;1.53;;
5805;SDS011;2929;50.810;8.342;2024-02-15T12:38:58;2.83;;;1.63;;
5805;SDS011;2929;50.810;8.342;2024-02-15T12:41:27;1.90;;;1.70;;
5805;SDS011;2929;50.810;8.342;2024-02-15T12:43:55;2.60;;;1.60;;
5805;SDS011;2929;50.810;8.342;2024-02-15T12:46:23;3.33;;;1.47;;
5805;SDS011;2929;50.810;8.342;2024-02-15T12:49:05;3.93;;;1.67;;
5805;SDS011;2929;50.810;8.342;2024-02-15T12:51:33;3.67;;;1.73;;
5805;SDS011;2929;50.810;8.342;2024-02-15T12:54:07;5.47;;;1.90;;
5805;SDS011;2929;50.810;8.342;2024-02-15T12:56:36;8.70;;;2.07;;
5805;SDS011;2929;50.810;8.342;2024-02-15T12:59:06;9.30;;;2.83;;
5805;SDS011;2929;50.810;8.342;2024-02-15T13:01:33;7.40;;;2.03;;
5805;SDS011;2929;50.810;8.342;2024-02-15T13:04:00;4.97;;;2.20;;
5805;SDS011;2929;50.810;8.342;2024-02-15T13:06:27;4.00;;;1.50;;
5805;SDS011;2929;50.810;8.342;2024-02-15T13:08:54;15.33;;;2.00;;
5805;SDS011;2929;50.810;8.342;2024-02-15T13:11:21;2.83;;;1.57;;
5805;SDS011;2929;50.810;8.342;2024-02-15T13:13:50;5.43;;;2.03;;
5805;SDS011;2929;50.810;8.342;2024-02-15T13:16:17;4.50;;;2.00;;
5805;SDS011;2929;50.810;8.342;2024-02-15T13:18:45;3.60;;;1.60;;
5805;SDS011;2929;50.810;8.342;2024-02-15T13:21:12;7.33;;;1.40;;
5805;SDS011;2929;50.810;8.342;2024-02-15T13:23:39;3.93;;;1.80;;
5805;SDS011;2929;50.810;8.342;2024-02-15T13:26:06;8.30;;;2.83;;
5805;SDS011;2929;50.810;8.342;2024-02-15T13:28:33;7.27;;;2.30;;
5805;SDS011;2929;50.810;8.342;2024-02-15T13:31:01;5.43;;;1.87;;
5805;SDS011;2929;50.810;8.342;2024-02-15T13:33:28;3.83;;;1.70;;
5805;SDS011;2929;50.810;8.342;2024-02-15T13:35:57;4.27;;;2.20;;
5805;SDS011;2929;50.810;8.342;2024-02-15T13:38:23;1.80;;;1.70;;
5805;SDS011;2929;50.810;8.342;2024-02-15T13:40:51;4.87;;;1.63;;
5805;SDS011;2929;50.810;8.342;2024-02-15T13:43:20;2.63;;;1.60;;
5805;SDS011;2929;50.810;8.342;2024-02-15T13:45:47;9.23;;;2.07;;
5805;SDS011;2929;50.810;8.342;2024-02-15T13:48:15;2.17;;;1.60;;
5805;SDS011;2929;50.810;8.342;2024-02-15T13:50:42;3.90;;;1.70;;
5805;SDS011;2929;50.810;8.342;2024-02-15T13:53:10;5.57;;;2.70;;
5805;SDS011;2929;50.810;8.342;2024-02-15T13:55:38;12.20;;;5.60;;
5805;SDS011;2929;50.810;8.342;2024-02-15T13:58:05;17.30;;;7.97;;
5805;SDS011;2929;50.810;8.342;2024-02-15T14:00:37;23.70;;;10.30;;
5805;SDS011;2929;50.810;8.342;2024-02-15T14:03:07;6.23;;;3.23;;
5805;SDS011;2929;50.810;8.342;2024-02-15T14:05:36;3.37;;;1.97;;
5805;SDS011;2929;50.810;8.342;2024-02-15T14:08:05;3.93;;;1.80;;
5805;SDS011;2929;50.810;8.342;2024-02-15T14:10:34;3.93;;;1.93;;
5805;SDS011;2929;50.810;8.342;2024-02-15T14:13:01;2.93;;;1.70;;
5805;SDS011;2929;50.810;8.342;2024-02-15T14:15:31;5.10;;;1.63;;
5805;SDS011;2929;50.810;8.342;2024-02-15T14:18:02;5.37;;;1.40;;
5805;SDS011;2929;50.810;8.342;2024-02-15T14:20:29;5.83;;;1.70;;
5805;SDS011;2929;50.810;8.342;2024-02-15T14:22:59;4.80;;;2.10;;
5805;SDS011;2929;50.810;8.342;2024-02-15T14:25:31;5.23;;;1.57;;
5805;SDS011;2929;50.810;8.342;2024-02-15T14:27:58;3.80;;;2.17;;
5805;SDS011;2929;50.810;8.342;2024-02-15T14:30:26;1.90;;;1.20;;
5805;SDS011;2929;50.810;8.342;2024-02-15T14:33:11;1.70;;;1.47;;
5805;SDS011;2929;50.810;8.342;2024-02-15T14:35:41;4.90;;;1.77;;
5805;SDS011;2929;50.810;8.342;2024-02-15T14:38:10;1.90;;;1.43;;
5805;SDS011;2929;50.810;8.342;2024-02-15T14:40:39;7.37;;;2.00;;
5805;SDS011;2929;50.810;8.342;2024-02-15T14:43:09;4.60;;;1.77;;
5805;SDS011;2929;50.810;8.342;2024-02-15T14:45:38;3.57;;;1.53;;
5805;SDS011;2929;50.810;8.342;2024-02-15T14:48:07;3.00;;;1.67;;
5805;SDS011;2929;50.810;8.342;2024-02-15T14:50:36;2.80;;;1.50;;
5805;SDS011;2929;50.810;8.342;2024-02-15T14:53:04;3.20;;;1.80;;
5805;SDS011;2929;50.810;8.342;2024-02-15T14:55:34;1.90;;;1.40;;
5805;SDS011;2929;50.810;8.342;2024-02-15T14:58:04;5.60;;;1.60;;
5805;SDS011;2929;50.810;8.342;2024-02-15T15:00:31;2.93;;;1.73;;
5805;SDS011;2929;50.810;8.342;2024-02-15T15:03:23;4.40;;;1.60;;
5805;SDS011;2929;50.810;8.342;2024-02-15T15:05:51;2.93;;;1.60;;
5805;SDS011;2929;50.810;8.342;2024-02-15T15:08:36;1.20;;;1.10;;
5805;SDS011;2929;50.810;8.342;2024-02-15T15:11:23;2.20;;;1.43;;
5805;SDS011;2929;50.810;8.342;2024-02-15T15:14:47;4.10;;;1.53;;
5805;SDS011;2929;50.810;8.342;2024-02-15T15:17:15;6.40;;;2.00;;
5805;SDS011;2929;50.810;8.342;2024-02-15T15:19:43;2.03;;;1.40;;
5805;SDS011;2929;50.810;8.342;2024-02-15T15:22:15;3.70;;;1.67;;
5805;SDS011;2929;50.810;8.342;2024-02-15T15:25:08;2.60;;;1.57;;
5805;SDS011;2929;50.810;8.342;2024-02-15T15:27:36;3.53;;;1.40;;
5805;SDS011;2929;50.810;8.342;2024-02-15T15:30:05;3.53;;;1.50;;
5805;SDS011;2929;50.810;8.342;2024-02-15T15:32:33;4.93;;;1.37;;
5805;SDS011;2929;50.810;8.342;2024-02-15T15:35:01;5.60;;;1.77;;
5805;SDS011;2929;50.810;8.342;2024-02-15T15:37:28;3.47;;;1.53;;